Time;durP1;ratioP1;P1;durP2;ratioP2;P2;SDS_P1;SDS_P2;PMS_P1;PMS_P2;Temp;Humidity;BMP_temperature;BMP_pressure;BME280_temperature;BME280_humidity;BME280_pressure;Samples;Min_cycle;Max_cycle;Signal;HPM_P1;HPM_P2
2022/06/27 08:02:47;;;;;;;;;4.75;4.25;;;;;19.44;59.50;101433.44;5063648;28;49770;-80
2022/06/27 08:05:12;;;;;;;;;5.00;2.50;;;;;19.94;58.40;101474.03;5046794;28;50137;-73
2022/06/27 08:07:38;;;;;;;;;2.25;2.25;;;;;20.30;57.78;101491.56;5046760;28;49638;-79
2022/06/27 08:10:07;;;;;;;;;2.00;2.00;;;;;20.70;56.45;101533.94;5028521;28;51954;-70
2022/06/27 08:12:32;;;;;;;;;0.00;0.00;;;;;20.76;56.17;101540.13;5046385;28;49930;-69
2022/06/27 08:14:59;;;;;;;;;1.25;1.25;;;;;20.93;56.25;101536.38;5046475;28;49522;-77
2022/06/27 08:17:24;;;;;;;;;2.00;2.00;;;;;20.95;55.37;101521.28;5046672;28;49749;-71
2022/06/27 08:19:50;;;;;;;;;1.00;1.00;;;;;20.82;55.20;101502.69;5046317;28;49907;-74
2022/06/27 08:22:15;;;;;;;;;1.75;1.75;;;;;21.03;55.13;101544.28;5046441;28;49730;-70
2022/06/27 08:24:40;;;;;;;;;2.00;0.50;;;;;20.90;54.98;101526.63;5046677;28;49808;-72
2022/06/27 08:27:06;;;;;;;;;1.25;1.25;;;;;20.98;55.20;101562.16;5046551;28;50112;-81
2022/06/27 08:29:32;;;;;;;;;0.50;0.00;;;;;20.72;55.40;101545.47;5046494;28;50801;-70
2022/06/27 08:31:58;;;;;;;;;1.00;1.00;;;;;20.61;57.01;101566.03;5046985;28;49817;-72
2022/06/27 08:34:23;;;;;;;;;0.25;0.25;;;;;20.62;58.20;101590.03;5046377;28;49778;-70
2022/06/27 08:36:50;;;;;;;;;1.00;1.00;;;;;19.73;60.88;101462.63;5046486;28;49621;-70
2022/06/27 08:39:16;;;;;;;;;0.25;0.00;;;;;20.51;61.54;101587.44;5046258;28;49686;-73
2022/06/27 08:41:43;;;;;;;;;0.00;0.00;;;;;19.97;62.03;101513.97;5046141;28;49632;-73
2022/06/27 08:44:09;;;;;;;;;1.00;1.00;;;;;20.41;61.94;101553.69;5046271;28;49743;-72
2022/06/27 08:46:35;;;;;;;;;2.00;2.00;;;;;20.26;62.69;101520.00;5046327;28;49515;-69
2022/06/27 08:49:03;;;;;;;;;1.00;1.00;;;;;20.32;59.99;101488.88;5045910;28;49860;-72
2022/06/27 08:51:29;;;;;;;;;1.75;1.00;;;;;20.53;61.93;101508.28;5046151;28;49739;-77
2022/06/27 08:53:55;;;;;;;;;0.50;0.50;;;;;20.90;62.35;101545.31;5046221;28;49598;-76
2022/06/27 08:56:22;;;;;;;;;2.25;2.25;;;;;20.93;59.87;101549.72;5045940;28;49904;-69
2022/06/27 08:58:50;;;;;;;;;0.75;0.75;;;;;21.03;61.16;101551.41;5045752;28;49629;-79
2022/06/27 09:01:19;;;;;;;;;1.00;1.00;;;;;21.00;59.69;101516.75;5045787;28;49824;-74
2022/06/27 09:04:03;;;;;;;;;1.00;1.00;;;;;20.10;57.63;101363.75;5045975;28;49640;-71
2022/06/27 09:06:43;;;;;;;;;1.00;1.00;;;;;20.62;58.39;101466.41;5046296;28;49689;-75
2022/06/27 09:09:09;;;;;;;;;0.50;0.50;;;;;21.21;59.88;101542.34;5045770;28;50489;-69
2022/06/27 09:11:37;;;;;;;;;1.50;1.50;;;;;20.86;58.00;101483.09;5045577;28;50371;-79
2022/06/27 09:14:05;;;;;;;;;2.50;2.50;;;;;20.75;58.49;101436.03;5033133;28;49806;-75
2022/06/27 09:16:31;;;;;;;;;3.00;1.75;;;;;21.44;56.68;101556.38;5032666;28;49729;-69
2022/06/27 09:18:58;;;;;;;;;0.75;0.75;;;;;20.78;56.82;101462.72;5032264;28;50784;-74
2022/06/27 09:21:25;;;;;;;;;5.00;2.00;;;;;20.73;58.51;101451.19;5032377;28;49870;-69
2022/06/27 09:24:01;;;;;;;;;1.00;1.00;;;;;20.95;58.34;101491.91;5032354;28;49838;-75
2022/06/27 09:26:29;;;;;;;;;2.00;1.00;;;;;21.25;58.46;101542.31;5032280;28;49785;-71
2022/06/27 09:29:03;;;;;;;;;1.50;1.00;;;;;21.08;57.72;101521.13;5032168;28;50437;-74
2022/06/27 09:31:35;;;;;;;;;1.00;1.00;;;;;20.96;57.46;101499.00;5032287;28;49930;-73
2022/06/27 09:34:04;;;;;;;;;0.50;0.50;;;;;21.30;57.16;101547.59;5032219;28;49532;-72
2022/06/27 09:36:31;;;;;;;;;2.75;2.25;;;;;21.18;56.83;101527.25;5032291;28;49538;-71
2022/06/27 09:38:59;;;;;;;;;1.00;1.00;;;;;20.91;56.53;101498.16;5031902;28;50735;-73
2022/06/27 09:41:26;;;;;;;;;0.00;0.00;;;;;20.49;56.44;101426.53;5031907;28;49996;-70
2022/06/27 09:43:54;;;;;;;;;1.25;0.75;;;;;21.22;55.36;101552.09;5032220;28;49627;-70
2022/06/27 09:46:19;;;;;;;;;1.00;1.00;;;;;21.15;54.39;101562.88;5032188;28;49721;-76
2022/06/27 09:48:46;;;;;;;;;1.00;1.00;;;;;21.02;54.04;101550.53;5031780;28;50628;-73
2022/06/27 09:51:17;;;;;;;;;1.50;1.25;;;;;21.11;55.31;101565.56;5032169;28;49743;-77
2022/06/27 09:53:50;;;;;;;;;1.00;1.00;;;;;21.17;55.91;101569.97;5031922;28;49978;-71
2022/06/27 09:56:18;;;;;;;;;0.00;0.00;;;;;20.92;54.91;101506.13;5031967;28;49923;-79
2022/06/27 09:58:44;;;;;;;;;0.00;0.00;;;;;21.28;53.44;101558.31;5031911;28;49876;-75
2022/06/27 10:01:11;;;;;;;;;0.00;0.00;;;;;20.14;52.29;101367.28;5031560;28;49559;-71
2022/06/27 10:03:37;;;;;;;;;0.00;0.00;;;;;20.45;53.10;101423.91;5032023;28;49549;-72
2022/06/27 10:06:05;;;;;;;;;0.25;0.25;;;;;21.29;52.74;101546.72;5032152;28;49840;-78
2022/06/27 10:08:33;;;;;;;;;1.25;0.00;;;;;21.12;51.90;101488.13;5031687;28;50442;-71
2022/06/27 10:11:01;;;;;;;;;0.00;0.00;;;;;21.54;51.40;101547.34;5031419;28;49765;-69
